FIN1847 EFHK-LATI
Flight info
| Callsign | FIN1847 |
|---|---|
| Flight time | N/A |
| Altitude | 38000 |
| Route | KOIVU DCT LARTI DCT NAVOT DCT LUTAL DCT BERIL DCT NAPOT DCT SUWGI DCT UNPEG DCT XESNA DCT GERVI DCT VENES M857 OBOSO DCT LENOV DCT IBLIZ DCT PARAK DCT MODRA DCT AKIKA DCT INLOT |
| Aircraft | A319/M-SDE3FGHIRWY/LB1 |
Departure
| Time | N/A |
|---|---|
| Airport | Helsinki Vantaa Airport (EFHK) |
Arrival
| Time | 2026-05-08 17:53 |
|---|---|
| Airport | Tirana International Airport Mother Teresa (LATI) |
| Time | Latitude | Longitude | Altitude | Speed | Heading |
|---|---|---|---|---|---|
| 2026-05-08 17:26 | 43.79552 | 19.76350 | 37023 ft | 437 kts | 190° |
| 2026-05-08 17:27 | 43.73514 | 19.75289 | 37022 ft | 437 kts | 190° |
| 2026-05-08 17:27 | 43.67478 | 19.74232 | 37024 ft | 438 kts | 190° |
| 2026-05-08 17:28 | 43.61418 | 19.73172 | 37026 ft | 439 kts | 190° |
| 2026-05-08 17:28 | 43.55359 | 19.72102 | 37024 ft | 439 kts | 190° |
| 2026-05-08 17:29 | 43.52322 | 19.71571 | 36785 ft | 440 kts | 190° |
| 2026-05-08 17:29 | 43.49292 | 19.71046 | 36525 ft | 439 kts | 189° |
| 2026-05-08 17:29 | 43.46255 | 19.70528 | 36253 ft | 439 kts | 189° |
| 2026-05-08 17:29 | 43.43229 | 19.70010 | 36008 ft | 439 kts | 189° |
| 2026-05-08 17:30 | 43.40200 | 19.69487 | 35755 ft | 439 kts | 189° |
| 2026-05-08 17:30 | 43.37167 | 19.68958 | 35501 ft | 439 kts | 189° |
| 2026-05-08 17:30 | 43.34137 | 19.68429 | 35251 ft | 439 kts | 189° |
| 2026-05-08 17:30 | 43.31110 | 19.67901 | 35007 ft | 439 kts | 189° |
| 2026-05-08 17:31 | 43.28083 | 19.67371 | 34770 ft | 438 kts | 189° |
| 2026-05-08 17:31 | 43.25059 | 19.66845 | 34524 ft | 438 kts | 189° |
| 2026-05-08 17:31 | 43.22032 | 19.66319 | 34287 ft | 438 kts | 189° |
| 2026-05-08 17:31 | 43.19007 | 19.65797 | 34051 ft | 438 kts | 189° |
| 2026-05-08 17:32 | 43.15982 | 19.65276 | 33783 ft | 438 kts | 189° |
| 2026-05-08 17:32 | 43.12958 | 19.64757 | 33511 ft | 437 kts | 189° |
| 2026-05-08 17:32 | 43.09940 | 19.64239 | 33241 ft | 436 kts | 189° |
| 2026-05-08 17:32 | 43.06937 | 19.63726 | 32958 ft | 434 kts | 189° |
| 2026-05-08 17:33 | 43.03957 | 19.63216 | 32406 ft | 429 kts | 189° |
| 2026-05-08 17:33 | 43.01044 | 19.62715 | 31852 ft | 426 kts | 189° |
| 2026-05-08 17:33 | 42.98115 | 19.62210 | 31298 ft | 422 kts | 189° |
| 2026-05-08 17:33 | 42.95215 | 19.61710 | 30749 ft | 419 kts | 189° |
| 2026-05-08 17:34 | 42.92329 | 19.61212 | 30210 ft | 417 kts | 189° |
| 2026-05-08 17:34 | 42.89389 | 19.60955 | 29153 ft | 424 kts | 180° |
| 2026-05-08 17:34 | 42.86424 | 19.61133 | 27923 ft | 427 kts | 179° |
| 2026-05-08 17:34 | 42.83485 | 19.61326 | 26769 ft | 427 kts | 179° |
| 2026-05-08 17:35 | 42.80528 | 19.61525 | 25718 ft | 424 kts | 179° |
| 2026-05-08 17:35 | 42.77605 | 19.61725 | 24953 ft | 417 kts | 179° |
| 2026-05-08 17:35 | 42.74734 | 19.61922 | 24475 ft | 412 kts | 179° |
| 2026-05-08 17:35 | 42.71882 | 19.62115 | 23988 ft | 407 kts | 179° |
| 2026-05-08 17:36 | 42.69069 | 19.62303 | 23490 ft | 403 kts | 179° |
| 2026-05-08 17:36 | 42.66272 | 19.62488 | 22965 ft | 400 kts | 179° |
| 2026-05-08 17:36 | 42.63504 | 19.62668 | 22483 ft | 396 kts | 179° |
| 2026-05-08 17:36 | 42.60762 | 19.62847 | 22002 ft | 393 kts | 179° |
| 2026-05-08 17:37 | 42.58035 | 19.63022 | 21518 ft | 391 kts | 179° |
| 2026-05-08 17:37 | 42.55332 | 19.63197 | 21028 ft | 388 kts | 179° |
| 2026-05-08 17:37 | 42.52636 | 19.63370 | 20536 ft | 386 kts | 179° |
| 2026-05-08 17:37 | 42.49955 | 19.63542 | 20035 ft | 384 kts | 179° |
| 2026-05-08 17:38 | 42.47290 | 19.63713 | 19548 ft | 382 kts | 179° |
| 2026-05-08 17:38 | 42.44630 | 19.63884 | 19059 ft | 381 kts | 179° |
| 2026-05-08 17:38 | 42.41991 | 19.64056 | 18568 ft | 379 kts | 179° |
| 2026-05-08 17:38 | 42.39397 | 19.64223 | 18054 ft | 377 kts | 179° |
| 2026-05-08 17:39 | 42.36782 | 19.64391 | 17563 ft | 374 kts | 179° |
| 2026-05-08 17:39 | 42.34162 | 19.64559 | 17087 ft | 370 kts | 179° |
| 2026-05-08 17:39 | 42.31602 | 19.64719 | 16624 ft | 366 kts | 179° |
| 2026-05-08 17:39 | 42.29069 | 19.64876 | 16164 ft | 363 kts | 179° |
| 2026-05-08 17:40 | 42.26554 | 19.65035 | 15709 ft | 360 kts | 178° |
| 2026-05-08 17:40 | 42.24067 | 19.65195 | 15264 ft | 356 kts | 178° |
| 2026-05-08 17:40 | 42.21604 | 19.65357 | 14818 ft | 353 kts | 178° |
| 2026-05-08 17:40 | 42.19163 | 19.65517 | 14382 ft | 350 kts | 178° |
| 2026-05-08 17:41 | 42.16770 | 19.65671 | 13939 ft | 348 kts | 178° |
| 2026-05-08 17:41 | 42.14364 | 19.65822 | 13462 ft | 345 kts | 178° |
| 2026-05-08 17:41 | 42.11975 | 19.65975 | 13007 ft | 342 kts | 178° |
| 2026-05-08 17:41 | 42.09612 | 19.66127 | 12562 ft | 338 kts | 178° |
| 2026-05-08 17:42 | 42.07269 | 19.66270 | 12117 ft | 335 kts | 178° |
| 2026-05-08 17:42 | 42.04957 | 19.66411 | 11684 ft | 331 kts | 178° |
| 2026-05-08 17:42 | 42.03401 | 19.66509 | 11383 ft | 329 kts | 178° |
| 2026-05-08 17:42 | 42.01123 | 19.66652 | 10934 ft | 326 kts | 178° |
| 2026-05-08 17:43 | 41.98928 | 19.66791 | 10509 ft | 323 kts | 178° |
| 2026-05-08 17:43 | 41.96697 | 19.66931 | 10201 ft | 316 kts | 178° |
| 2026-05-08 17:43 | 41.94544 | 19.67066 | 10077 ft | 303 kts | 178° |
| 2026-05-08 17:43 | 41.92477 | 19.67197 | 9948 ft | 292 kts | 179° |
| 2026-05-08 17:44 | 41.90467 | 19.67325 | 9686 ft | 286 kts | 179° |
| 2026-05-08 17:44 | 41.88497 | 19.67451 | 9274 ft | 282 kts | 179° |
| 2026-05-08 17:44 | 41.86547 | 19.67577 | 8714 ft | 279 kts | 178° |
| 2026-05-08 17:44 | 41.84611 | 19.67701 | 8067 ft | 277 kts | 178° |
| 2026-05-08 17:45 | 41.82689 | 19.67823 | 7417 ft | 276 kts | 178° |
| 2026-05-08 17:45 | 41.80776 | 19.67945 | 6790 ft | 274 kts | 177° |
| 2026-05-08 17:45 | 41.78877 | 19.68065 | 6163 ft | 272 kts | 177° |
| 2026-05-08 17:45 | 41.76986 | 19.68184 | 5493 ft | 272 kts | 177° |
| 2026-05-08 17:46 | 41.75144 | 19.68298 | 5176 ft | 256 kts | 176° |
| 2026-05-08 17:46 | 41.73432 | 19.68404 | 5041 ft | 236 kts | 176° |
| 2026-05-08 17:46 | 41.71849 | 19.68502 | 4940 ft | 219 kts | 176° |
| 2026-05-08 17:46 | 41.70387 | 19.68593 | 4863 ft | 201 kts | 178° |
| 2026-05-08 17:47 | 41.69073 | 19.68677 | 4764 ft | 185 kts | 178° |
| 2026-05-08 17:47 | 41.67822 | 19.68756 | 4673 ft | 177 kts | 178° |
| 2026-05-08 17:47 | 41.66596 | 19.68834 | 4596 ft | 176 kts | 178° |
| 2026-05-08 17:47 | 41.65372 | 19.68918 | 4492 ft | 176 kts | 176° |
| 2026-05-08 17:48 | 41.64157 | 19.69047 | 4284 ft | 175 kts | 175° |
| 2026-05-08 17:48 | 41.62945 | 19.69198 | 4071 ft | 174 kts | 174° |
| 2026-05-08 17:48 | 41.61741 | 19.69355 | 3840 ft | 174 kts | 174° |
| 2026-05-08 17:48 | 41.60541 | 19.69515 | 3614 ft | 173 kts | 174° |
| 2026-05-08 17:49 | 41.59344 | 19.69674 | 3389 ft | 172 kts | 173° |
| 2026-05-08 17:49 | 41.58152 | 19.69833 | 3162 ft | 172 kts | 173° |
| 2026-05-08 17:49 | 41.56975 | 19.69990 | 2932 ft | 171 kts | 173° |
| 2026-05-08 17:49 | 41.55792 | 19.70149 | 2704 ft | 171 kts | 173° |
| 2026-05-08 17:50 | 41.54608 | 19.70307 | 2476 ft | 171 kts | 173° |
| 2026-05-08 17:50 | 41.53422 | 19.70465 | 2242 ft | 171 kts | 173° |
| 2026-05-08 17:50 | 41.52247 | 19.70621 | 2013 ft | 167 kts | 173° |
| 2026-05-08 17:50 | 41.51112 | 19.70772 | 1794 ft | 161 kts | 173° |
| 2026-05-08 17:51 | 41.50049 | 19.70914 | 1594 ft | 145 kts | 172° |
| 2026-05-08 17:51 | 41.49096 | 19.71040 | 1404 ft | 133 kts | 172° |
| 2026-05-08 17:51 | 41.48194 | 19.71161 | 1246 ft | 129 kts | 172° |
| 2026-05-08 17:51 | 41.47305 | 19.71279 | 1071 ft | 129 kts | 173° |
| 2026-05-08 17:52 | 41.46414 | 19.71408 | 926 ft | 129 kts | 172° |
| 2026-05-08 17:52 | 41.45521 | 19.71525 | 735 ft | 128 kts | 173° |
| 2026-05-08 17:52 | 41.43772 | 19.71756 | 362 ft | 126 kts | 174° |
| 2026-05-08 17:53 | 41.42906 | 19.71869 | 204 ft | 127 kts | 174° |
| 2026-05-08 17:53 | 41.42072 | 19.71982 | 124 ft | 109 kts | 174° |
| 2026-05-08 17:53 | 41.41471 | 19.72057 | 124 ft | 62 kts | 174° |
| 2026-05-08 17:53 | 41.41205 | 19.72093 | 127 ft | 22 kts | 174° |
| 2026-05-08 17:54 | 41.41085 | 19.72110 | 132 ft | 18 kts | 174° |
| 2026-05-08 17:54 | 41.40933 | 19.72130 | 133 ft | 25 kts | 174° |
| 2026-05-08 17:54 | 41.40763 | 19.72153 | 134 ft | 22 kts | 174° |
| 2026-05-08 17:54 | 41.40676 | 19.72065 | 133 ft | 16 kts | 254° |
| 2026-05-08 17:55 | 41.40649 | 19.71927 | 132 ft | 14 kts | 256° |
| 2026-05-08 17:55 | 41.40633 | 19.71813 | 132 ft | 11 kts | 276° |
| 2026-05-08 17:55 | 41.40681 | 19.71769 | 132 ft | 8 kts | 355° |
| 2026-05-08 17:55 | 41.40756 | 19.71759 | 132 ft | 13 kts | 353° |
| 2026-05-08 17:56 | 41.40838 | 19.71743 | 132 ft | 11 kts | 351° |
| 2026-05-08 17:56 | 41.40904 | 19.71727 | 131 ft | 10 kts | 348° |
| 2026-05-08 17:56 | 41.41016 | 19.71706 | 131 ft | 19 kts | 354° |
| 2026-05-08 17:56 | 41.41141 | 19.71685 | 130 ft | 17 kts | 354° |
| 2026-05-08 17:57 | 41.41248 | 19.71674 | 126 ft | 14 kts | 355° |
| 2026-05-08 17:57 | 41.41337 | 19.71661 | 126 ft | 12 kts | 353° |
| 2026-05-08 17:57 | 41.41409 | 19.71652 | 127 ft | 11 kts | 355° |
| 2026-05-08 17:57 | 41.41479 | 19.71644 | 125 ft | 9 kts | 355° |
| 2026-05-08 17:58 | 41.41539 | 19.71636 | 126 ft | 10 kts | 354° |
| 2026-05-08 17:58 | 41.41632 | 19.71622 | 126 ft | 17 kts | 353° |
| 2026-05-08 17:58 | 41.41775 | 19.71602 | 121 ft | 24 kts | 355° |
| 2026-05-08 17:58 | 41.41878 | 19.71590 | 124 ft | 8 kts | 355° |
| 2026-05-08 17:59 | 41.41924 | 19.71584 | 122 ft | 5 kts | 355° |
| 2026-05-08 17:59 | 41.41951 | 19.71581 | 121 ft | 2 kts | 355° |
| 2026-05-08 17:59 | 41.41953 | 19.71581 | 121 ft | 0 kts | 355° |
| 2026-05-08 18:01 | 41.41969 | 19.71579 | 121 ft | 3 kts | 354° |
| 2026-05-08 18:02 | 41.41978 | 19.71577 | 123 ft | 1 kts | 354° |
| 2026-05-08 18:02 | 41.41990 | 19.71576 | 119 ft | 6 kts | 354° |
| 2026-05-08 18:02 | 41.42032 | 19.71570 | 122 ft | 2 kts | 354° |
| 2026-05-08 18:02 | 41.42035 | 19.71569 | 119 ft | 0 kts | 354° |
| 2026-05-08 18:03 | 41.42042 | 19.71568 | 120 ft | 0 kts | 354° |
| 2026-05-08 18:03 | 41.42046 | 19.71568 | 121 ft | 0 kts | 354° |
| 2026-05-08 18:04 | 41.42057 | 19.71566 | 120 ft | 3 kts | 353° |
| 2026-05-08 18:04 | 41.42069 | 19.71535 | 122 ft | 9 kts | 262° |
| 2026-05-08 18:04 | 41.42065 | 19.71500 | 122 ft | 0 kts | 263° |
| 2026-05-08 18:04 | 41.42065 | 19.71493 | 122 ft | 1 kts | 265° |
| 2026-05-08 18:05 | 41.42065 | 19.71492 | 122 ft | 0 kts | 265° |